createdAt,value
2018-09-16T00:01:08.454Z,4.13
2018-09-16T00:03:36.501Z,4.93
2018-09-16T00:06:04.660Z,3.90
2018-09-16T00:08:32.733Z,4.63
2018-09-16T00:11:00.850Z,3.33
2018-09-16T00:13:28.922Z,4.80
2018-09-16T00:15:57.001Z,4.83
2018-09-16T00:18:25.118Z,4.43
2018-09-16T00:20:53.148Z,4.90
2018-09-16T00:23:21.199Z,4.33
2018-09-16T00:25:49.259Z,4.33
2018-09-16T00:28:17.312Z,4.47
2018-09-16T00:30:45.400Z,4.83
2018-09-16T00:33:13.454Z,3.97
2018-09-16T00:35:41.529Z,3.70
2018-09-16T00:38:09.590Z,4.27
2018-09-16T00:40:37.693Z,4.90
2018-09-16T00:43:05.753Z,3.70
2018-09-16T00:45:33.785Z,5.17
2018-09-16T00:48:01.832Z,3.93
2018-09-16T00:50:29.897Z,4.40
2018-09-16T00:52:57.984Z,4.00
2018-09-16T00:55:26.058Z,3.83
2018-09-16T00:57:54.105Z,3.67
2018-09-16T01:00:22.165Z,3.87
2018-09-16T01:02:50.220Z,3.47
2018-09-16T01:05:18.253Z,4.37
2018-09-16T01:07:46.314Z,4.63
2018-09-16T01:10:14.379Z,4.60
2018-09-16T01:12:42.439Z,4.33
2018-09-16T01:15:10.499Z,3.70
2018-09-16T01:17:38.565Z,4.80
2018-09-16T01:20:06.655Z,4.10
2018-09-16T01:22:34.750Z,4.10
2018-09-16T01:25:02.869Z,4.77
2018-09-16T01:27:30.951Z,3.83
2018-09-16T01:29:59.012Z,3.70
2018-09-16T01:32:27.077Z,3.63
2018-09-16T01:34:55.445Z,4.43
2018-09-16T01:37:29.045Z,4.07
2018-09-16T01:39:57.093Z,4.10
2018-09-16T01:42:25.152Z,4.67
2018-09-16T01:44:53.206Z,3.33
2018-09-16T01:47:21.287Z,4.60
2018-09-16T01:49:49.352Z,3.90
2018-09-16T01:52:17.408Z,4.60
2018-09-16T01:54:45.462Z,4.07
2018-09-16T01:57:13.546Z,4.93
2018-09-16T01:59:41.626Z,4.20
2018-09-16T02:02:09.696Z,4.87
2018-09-16T02:04:42.577Z,5.20
2018-09-16T02:07:12.093Z,4.57
2018-09-16T02:09:40.176Z,4.37
2018-09-16T02:12:08.473Z,4.50
2018-09-16T02:14:36.514Z,5.10
2018-09-16T02:17:04.581Z,4.20
2018-09-16T02:19:32.649Z,4.20
2018-09-16T02:22:00.714Z,4.77
2018-09-16T02:24:28.796Z,4.37
2018-09-16T02:26:56.852Z,4.43
2018-09-16T02:29:24.909Z,4.20
2018-09-16T02:31:53.014Z,4.33
2018-09-16T02:34:21.266Z,5.20
2018-09-16T02:36:49.335Z,4.73
2018-09-16T02:39:17.381Z,4.67
2018-09-16T02:41:45.447Z,5.03
2018-09-16T02:44:13.506Z,4.83
2018-09-16T02:46:41.610Z,4.70
2018-09-16T02:49:09.658Z,4.43
2018-09-16T02:51:37.689Z,4.43
2018-09-16T02:54:05.900Z,4.73
2018-09-16T02:56:34.163Z,4.77
2018-09-16T02:59:02.250Z,4.40
2018-09-16T03:01:30.297Z,5.60
2018-09-16T03:03:58.461Z,4.40
2018-09-16T03:06:31.950Z,4.87
2018-09-16T03:09:01.430Z,4.70
2018-09-16T03:11:30.294Z,5.20
2018-09-16T03:13:58.308Z,6.23
2018-09-16T03:16:26.354Z,5.33
2018-09-16T03:18:54.534Z,5.20
2018-09-16T03:21:29.177Z,5.73
2018-09-16T03:23:57.257Z,5.37
2018-09-16T03:26:25.315Z,6.13
2018-09-16T03:28:53.640Z,5.40
2018-09-16T03:31:21.718Z,6.33
2018-09-16T03:33:50.111Z,5.13
2018-09-16T03:36:18.154Z,5.80
2018-09-16T03:38:46.222Z,7.23
2018-09-16T03:41:14.295Z,6.87
2018-09-16T03:43:42.378Z,6.50
2018-09-16T03:46:10.414Z,5.20
2018-09-16T03:48:38.457Z,4.67
2018-09-16T03:51:06.501Z,5.83
2018-09-16T03:53:34.554Z,5.73
2018-09-16T03:56:02.615Z,6.17
2018-09-16T03:58:30.844Z,6.23
2018-09-16T04:00:59.102Z,6.20
2018-09-16T04:03:27.459Z,6.00
2018-09-16T04:05:55.517Z,5.23
2018-09-16T04:08:23.586Z,6.33
2018-09-16T04:10:51.629Z,6.73
2018-09-16T04:13:19.677Z,7.17
2018-09-16T04:15:47.721Z,6.70
2018-09-16T04:18:15.853Z,6.40
2018-09-16T04:20:43.901Z,6.23
2018-09-16T04:23:11.969Z,6.40
2018-09-16T04:25:40.047Z,6.80
2018-09-16T04:28:08.104Z,6.77
2018-09-16T04:30:36.187Z,7.20
2018-09-16T04:33:04.251Z,6.80
2018-09-16T04:35:32.317Z,5.97
2018-09-16T04:38:00.368Z,5.70
2018-09-16T04:40:28.956Z,6.67
2018-09-16T04:42:57.034Z,7.00
2018-09-16T04:45:25.070Z,6.33
2018-09-16T04:47:53.127Z,6.60
2018-09-16T04:50:21.204Z,6.70
2018-09-16T04:52:49.254Z,6.10
2018-09-16T04:55:17.313Z,7.50
2018-09-16T04:57:45.348Z,7.10
2018-09-16T05:00:13.405Z,6.03
2018-09-16T05:02:41.452Z,6.83
2018-09-16T05:05:09.511Z,6.40
2018-09-16T05:07:37.565Z,7.20
2018-09-16T05:10:05.689Z,6.60
2018-09-16T05:12:33.734Z,7.73
2018-09-16T05:15:01.828Z,6.47
2018-09-16T05:17:29.876Z,7.43
2018-09-16T05:19:58.226Z,6.13
2018-09-16T05:22:26.338Z,7.33
2018-09-16T05:24:54.382Z,7.50
2018-09-16T05:27:22.418Z,7.47
2018-09-16T05:29:51.348Z,8.13
2018-09-16T05:32:19.973Z,8.10
2018-09-16T05:34:48.049Z,7.83
2018-09-16T05:37:16.108Z,10.10
2018-09-16T05:39:44.174Z,8.77
2018-09-16T05:42:12.234Z,10.10
2018-09-16T05:44:41.295Z,9.10
2018-09-16T05:47:09.354Z,9.50
2018-09-16T05:49:37.496Z,9.70
2018-09-16T05:52:05.567Z,9.50
2018-09-16T05:54:33.637Z,10.90
2018-09-16T05:57:01.697Z,10.30
2018-09-16T05:59:29.769Z,11.30
2018-09-16T06:01:57.813Z,10.03
2018-09-16T06:04:25.871Z,11.33
2018-09-16T06:06:53.949Z,10.10
2018-09-16T06:09:22.009Z,11.53
2018-09-16T06:11:50.154Z,11.37
2018-09-16T06:14:18.267Z,11.17
2018-09-16T06:16:46.323Z,11.03
2018-09-16T06:19:14.417Z,11.13
2018-09-16T06:21:42.588Z,10.80
2018-09-16T06:24:10.713Z,11.10
2018-09-16T06:26:38.790Z,10.53
2018-09-16T06:29:06.899Z,11.60
2018-09-16T06:31:34.957Z,11.20
2018-09-16T06:34:03.030Z,11.20
2018-09-16T06:36:31.138Z,10.73
2018-09-16T06:38:59.404Z,11.20
2018-09-16T06:41:27.538Z,11.67
2018-09-16T06:43:55.528Z,12.23
2018-09-16T06:46:23.603Z,13.80
2018-09-16T06:48:51.658Z,11.40
2018-09-16T06:51:20.252Z,10.80
2018-09-16T06:53:48.289Z,13.20
2018-09-16T06:56:16.364Z,11.27
2018-09-16T06:58:44.421Z,11.93
2018-09-16T07:01:12.485Z,12.17
2018-09-16T07:03:40.569Z,18.93
2018-09-16T07:06:08.605Z,12.10
2018-09-16T07:08:36.714Z,9.83
2018-09-16T07:11:04.851Z,16.57
2018-09-16T07:13:33.051Z,9.60
2018-09-16T07:16:01.111Z,8.73
2018-09-16T07:18:29.444Z,9.77
2018-09-16T07:20:57.715Z,9.57
2018-09-16T07:23:25.892Z,15.03
2018-09-16T07:25:54.992Z,7.87
2018-09-16T07:28:23.146Z,7.10
2018-09-16T07:30:51.378Z,8.10
2018-09-16T07:33:19.474Z,8.90
2018-09-16T07:35:47.513Z,8.70
2018-09-16T07:38:15.583Z,8.17
2018-09-16T07:40:43.634Z,12.47
2018-09-16T07:43:11.685Z,7.43
2018-09-16T07:45:39.962Z,6.23
2018-09-16T07:48:08.023Z,5.90
2018-09-16T07:50:36.102Z,6.57
2018-09-16T07:53:04.203Z,6.33
2018-09-16T07:55:32.213Z,6.00
2018-09-16T07:58:00.246Z,4.97
2018-09-16T08:00:28.373Z,5.47
2018-09-16T08:02:56.366Z,6.17
2018-09-16T08:05:24.443Z,5.97
2018-09-16T08:07:52.481Z,4.83
2018-09-16T08:10:20.553Z,5.77
2018-09-16T08:12:48.641Z,8.50
2018-09-16T08:15:16.861Z,8.67
2018-09-16T08:17:44.914Z,5.60
2018-09-16T08:20:12.983Z,5.53
2018-09-16T08:22:41.126Z,5.20
2018-09-16T08:25:09.178Z,4.10
2018-09-16T08:27:37.242Z,4.93
2018-09-16T08:30:05.733Z,5.20
2018-09-16T08:32:33.793Z,4.03
2018-09-16T08:35:01.866Z,4.10
2018-09-16T08:37:29.926Z,5.17
2018-09-16T08:39:58.079Z,5.60
2018-09-16T08:42:26.167Z,6.10
2018-09-16T08:44:54.278Z,10.03
2018-09-16T08:47:23.026Z,12.93
2018-09-16T08:49:51.116Z,5.77
2018-09-16T08:52:19.239Z,9.03
2018-09-16T08:54:47.267Z,5.83
2018-09-16T08:57:15.787Z,4.53
2018-09-16T08:59:43.855Z,5.53
2018-09-16T09:02:11.910Z,4.83
2018-09-16T09:04:40.345Z,4.13
2018-09-16T09:07:08.397Z,3.87
2018-09-16T09:09:36.457Z,3.77
2018-09-16T09:12:04.561Z,7.00
2018-09-16T09:14:32.766Z,4.13
2018-09-16T09:17:00.805Z,3.70
2018-09-16T09:19:28.846Z,4.93
2018-09-16T09:21:56.966Z,11.40
2018-09-16T09:24:25.029Z,5.40
2018-09-16T09:26:53.095Z,8.57
2018-09-16T09:29:21.137Z,5.57
2018-09-16T09:31:49.236Z,4.77
2018-09-16T09:34:17.289Z,5.57
2018-09-16T09:36:45.352Z,4.40
2018-09-16T09:39:14.029Z,3.60
2018-09-16T09:41:42.074Z,6.03
2018-09-16T09:44:10.149Z,4.40
2018-09-16T09:46:38.196Z,4.10
2018-09-16T09:49:06.412Z,3.67
2018-09-16T09:51:34.487Z,3.43
2018-09-16T09:54:02.554Z,3.57
2018-09-16T09:56:31.172Z,3.40
2018-09-16T09:58:59.264Z,5.30
2018-09-16T10:01:27.339Z,6.00
2018-09-16T10:03:55.630Z,3.30
2018-09-16T10:06:24.266Z,4.00
2018-09-16T10:08:52.371Z,3.40
2018-09-16T10:11:20.493Z,3.17
2018-09-16T10:13:48.609Z,6.60
2018-09-16T10:16:16.626Z,3.00
2018-09-16T10:18:44.730Z,5.07
2018-09-16T10:21:12.793Z,3.57
2018-09-16T10:23:41.360Z,3.63
2018-09-16T10:26:09.434Z,3.10
2018-09-16T10:28:37.543Z,3.07
2018-09-16T10:31:06.340Z,3.10
2018-09-16T10:33:35.261Z,3.60
2018-09-16T10:36:03.365Z,2.40
2018-09-16T10:38:31.800Z,3.10
2018-09-16T10:40:59.829Z,2.70
2018-09-16T10:43:27.933Z,2.90
2018-09-16T10:45:55.998Z,3.30
2018-09-16T10:48:24.105Z,3.17
2018-09-16T10:50:52.181Z,2.80
2018-09-16T10:53:20.295Z,2.47
2018-09-16T10:55:48.361Z,2.90
2018-09-16T10:58:16.837Z,3.33
2018-09-16T11:00:45.065Z,2.43
2018-09-16T11:03:13.178Z,3.23
2018-09-16T11:05:41.241Z,1.90
2018-09-16T11:08:09.324Z,2.70
2018-09-16T11:10:37.346Z,2.20
2018-09-16T11:13:05.424Z,1.93
2018-09-16T11:15:33.473Z,3.90
2018-09-16T11:18:01.741Z,2.13
2018-09-16T11:20:29.910Z,1.77
2018-09-16T11:22:57.954Z,2.60
2018-09-16T11:25:26.025Z,2.07
2018-09-16T11:27:54.103Z,1.97
2018-09-16T11:30:22.170Z,2.00
2018-09-16T11:32:51.222Z,1.90
2018-09-16T11:35:19.291Z,3.40
2018-09-16T11:37:47.374Z,2.57
2018-09-16T11:40:15.426Z,2.53
2018-09-16T11:42:43.502Z,1.80
2018-09-16T11:45:11.562Z,3.00
2018-09-16T11:47:39.610Z,3.77
2018-09-16T11:50:07.685Z,2.93
2018-09-16T11:52:35.751Z,2.67
2018-09-16T11:55:03.809Z,3.00
2018-09-16T11:57:31.882Z,1.93
2018-09-16T11:59:59.918Z,2.83
2018-09-16T12:02:29.099Z,2.73
2018-09-16T12:04:57.173Z,3.47
2018-09-16T12:07:25.261Z,2.63
2018-09-16T12:09:53.335Z,2.93
2018-09-16T12:12:21.376Z,3.13
2018-09-16T12:14:49.429Z,3.13
2018-09-16T12:17:17.490Z,3.67
2018-09-16T12:19:46.377Z,3.80
2018-09-16T12:22:14.408Z,4.03
2018-09-16T12:24:43.625Z,2.60
2018-09-16T12:27:11.816Z,3.20
2018-09-16T12:29:40.399Z,2.70
2018-09-16T12:32:08.457Z,3.60
2018-09-16T12:34:36.547Z,3.00
2018-09-16T12:37:04.901Z,3.50
2018-09-16T12:39:32.948Z,4.33
2018-09-16T12:42:00.989Z,4.33
2018-09-16T12:44:29.045Z,4.37
2018-09-16T12:46:57.170Z,4.40
2018-09-16T12:49:25.404Z,3.23
2018-09-16T12:51:53.405Z,3.17
2018-09-16T12:54:21.448Z,5.03
2018-09-16T12:56:49.522Z,4.23
2018-09-16T12:59:17.837Z,5.00
2018-09-16T13:01:45.951Z,4.00
2018-09-16T13:04:14.051Z,4.13
2018-09-16T13:06:42.034Z,3.70
2018-09-16T13:09:11.417Z,3.57
2018-09-16T13:11:39.545Z,4.30
2018-09-16T13:14:07.760Z,4.50
2018-09-16T13:16:35.865Z,6.13
2018-09-16T13:19:04.869Z,5.10
2018-09-16T13:21:32.922Z,4.97
2018-09-16T13:24:01.843Z,5.03
2018-09-16T13:26:30.032Z,5.17
2018-09-16T13:28:58.083Z,5.90
2018-09-16T13:31:26.138Z,5.60
2018-09-16T13:33:54.285Z,5.17
2018-09-16T13:36:22.388Z,5.07
2018-09-16T13:38:50.425Z,5.50
2018-09-16T13:41:18.477Z,5.37
2018-09-16T13:43:46.622Z,6.00
2018-09-16T13:46:14.667Z,5.43
2018-09-16T13:48:42.738Z,6.13
2018-09-16T13:51:10.800Z,6.27
2018-09-16T13:53:38.937Z,6.50
2018-09-16T13:56:07.178Z,6.30
2018-09-16T13:58:35.252Z,5.07
2018-09-16T14:01:04.348Z,5.37
2018-09-16T14:03:32.414Z,5.60
2018-09-16T14:06:00.487Z,4.97
2018-09-16T14:08:28.552Z,4.90
2018-09-16T14:10:56.643Z,4.70
2018-09-16T14:13:24.887Z,4.30
2018-09-16T14:15:53.943Z,4.50
2018-09-16T14:18:22.012Z,5.00
2018-09-16T14:20:50.114Z,5.00
2018-09-16T14:23:18.140Z,3.47
2018-09-16T14:25:46.210Z,4.20
2018-09-16T14:28:14.275Z,4.50
2018-09-16T14:30:42.341Z,4.20
2018-09-16T14:33:10.414Z,3.53
2018-09-16T14:35:38.459Z,3.50
2018-09-16T14:38:06.563Z,3.30
2018-09-16T14:40:34.621Z,2.80
2018-09-16T14:43:02.669Z,3.60
2018-09-16T14:45:30.710Z,3.37
2018-09-16T14:47:58.745Z,3.70
2018-09-16T14:50:26.837Z,3.37
2018-09-16T14:52:54.873Z,3.73
2018-09-16T14:55:22.926Z,3.17
2018-09-16T14:57:50.985Z,3.43
2018-09-16T15:00:19.050Z,4.40
2018-09-16T15:02:47.106Z,4.17
2018-09-16T15:05:15.178Z,3.40
2018-09-16T15:07:43.273Z,3.73
2018-09-16T15:10:11.386Z,2.70
2018-09-16T15:12:40.082Z,3.00
2018-09-16T15:15:08.149Z,2.60
2018-09-16T15:17:36.215Z,2.97
2018-09-16T15:20:04.284Z,3.00
2018-09-16T15:22:32.354Z,2.87
2018-09-16T15:25:01.125Z,2.53
2018-09-16T15:27:29.174Z,3.00
2018-09-16T15:29:57.247Z,2.63
2018-09-16T15:32:25.293Z,3.00
2018-09-16T15:34:53.354Z,2.20
2018-09-16T15:37:21.412Z,2.63
2018-09-16T15:39:49.452Z,2.67
2018-09-16T15:42:17.538Z,2.57
2018-09-16T15:44:45.633Z,3.23
2018-09-16T15:47:13.846Z,2.70
2018-09-16T15:49:41.909Z,2.83
2018-09-16T15:52:10.122Z,2.70
2018-09-16T15:54:38.871Z,2.43
2018-09-16T15:57:06.965Z,2.60
2018-09-16T15:59:35.021Z,2.60
2018-09-16T16:02:03.056Z,2.90
2018-09-16T16:04:31.128Z,2.70
2018-09-16T16:06:59.183Z,2.27
2018-09-16T16:09:28.040Z,2.57
2018-09-16T16:11:56.086Z,2.30
2018-09-16T16:14:24.164Z,2.83
2018-09-16T16:16:54.709Z,2.67
2018-09-16T16:19:22.999Z,3.13
2018-09-16T16:21:51.126Z,2.90
2018-09-16T16:24:19.203Z,3.13
2018-09-16T16:26:47.278Z,3.00
2018-09-16T16:29:15.492Z,2.70
2018-09-16T16:31:43.557Z,3.27
2018-09-16T16:34:11.634Z,3.00
2018-09-16T16:36:39.868Z,2.57
2018-09-16T16:39:08.476Z,3.10
2018-09-16T16:41:36.561Z,3.03
2018-09-16T16:44:04.633Z,2.73
2018-09-16T16:46:32.731Z,3.00
2018-09-16T16:49:00.789Z,3.50
2018-09-16T16:51:28.859Z,3.23
2018-09-16T16:53:56.965Z,3.60
2018-09-16T16:56:25.090Z,3.90
2018-09-16T16:58:53.162Z,6.97
2018-09-16T17:01:21.258Z,4.40
2018-09-16T17:03:49.325Z,3.67
2018-09-16T17:06:17.509Z,3.60
2018-09-16T17:08:45.604Z,4.10
2018-09-16T17:11:13.653Z,3.30
2018-09-16T17:13:42.684Z,5.70
2018-09-16T17:16:10.781Z,3.40
2018-09-16T17:18:38.866Z,4.87
2018-09-16T17:21:06.933Z,4.50
2018-09-16T17:23:35.209Z,3.57
2018-09-16T17:26:03.630Z,3.70
2018-09-16T17:28:31.803Z,6.27
2018-09-16T17:31:00.562Z,4.10
2018-09-16T17:33:28.622Z,5.10
2018-09-16T17:35:56.718Z,6.30
2018-09-16T17:38:24.869Z,4.30
2018-09-16T17:40:52.949Z,6.07
2018-09-16T17:43:21.377Z,6.70
2018-09-16T17:45:49.482Z,7.50
2018-09-16T17:48:17.608Z,9.53
2018-09-16T17:50:45.809Z,10.97
2018-09-16T17:53:13.835Z,11.90
2018-09-16T17:55:41.926Z,8.70
2018-09-16T17:58:09.981Z,4.97
2018-09-16T18:00:38.070Z,6.80
2018-09-16T18:03:06.157Z,5.33
2018-09-16T18:05:34.307Z,5.53
2018-09-16T18:08:02.453Z,4.23
2018-09-16T18:10:31.823Z,4.73
2018-09-16T18:12:59.822Z,5.73
2018-09-16T18:15:27.883Z,6.50
2018-09-16T18:17:56.587Z,7.43
2018-09-16T18:20:25.150Z,6.30
2018-09-16T18:22:53.228Z,6.23
2018-09-16T18:25:21.284Z,6.90
2018-09-16T18:27:49.363Z,6.93
2018-09-16T18:30:17.458Z,6.80
2018-09-16T18:32:46.949Z,6.50
2018-09-16T18:35:15.071Z,7.80
2018-09-16T18:37:43.154Z,6.30
2018-09-16T18:40:11.602Z,6.57
2018-09-16T18:42:39.753Z,8.50
2018-09-16T18:45:08.010Z,7.10
2018-09-16T18:47:36.225Z,6.70
2018-09-16T18:50:04.313Z,6.70
2018-09-16T18:52:32.573Z,9.57
2018-09-16T18:55:01.668Z,7.03
2018-09-16T18:57:29.954Z,8.53
2018-09-16T18:59:58.017Z,7.43
2018-09-16T19:02:26.078Z,8.10
2018-09-16T19:04:54.212Z,8.57
2018-09-16T19:07:22.280Z,9.00
2018-09-16T19:09:50.438Z,8.80
2018-09-16T19:12:18.523Z,8.00
2018-09-16T19:14:46.627Z,8.50
2018-09-16T19:17:14.670Z,7.87
2018-09-16T19:19:42.738Z,7.27
2018-09-16T19:22:10.814Z,9.43
2018-09-16T19:24:38.886Z,9.20
2018-09-16T19:27:06.956Z,8.23
2018-09-16T19:29:35.042Z,7.80
2018-09-16T19:32:03.106Z,9.97
2018-09-16T19:34:31.196Z,8.70
2018-09-16T19:36:59.290Z,10.00
2018-09-16T19:39:27.349Z,10.50
2018-09-16T19:41:55.478Z,30.03
2018-09-16T19:44:23.512Z,20.97
2018-09-16T19:46:51.657Z,14.17
2018-09-16T19:49:19.784Z,10.20
2018-09-16T19:51:47.892Z,9.40
2018-09-16T19:54:16.019Z,17.03
2018-09-16T19:56:44.102Z,45.30
2018-09-16T19:59:12.305Z,18.70
2018-09-16T20:01:47.137Z,10.23
2018-09-16T20:04:15.194Z,10.93
2018-09-16T20:06:43.243Z,9.13
2018-09-16T20:09:12.557Z,10.00
2018-09-16T20:11:40.826Z,10.17
2018-09-16T20:14:09.698Z,9.50
2018-09-16T20:16:37.982Z,9.87
2018-09-16T20:19:06.501Z,9.60
2018-09-16T20:21:35.458Z,9.87
2018-09-16T20:24:03.490Z,9.37
2018-09-16T20:26:31.561Z,10.43
2018-09-16T20:28:59.677Z,10.23
2018-09-16T20:31:27.733Z,10.20
2018-09-16T20:33:56.006Z,10.70
2018-09-16T20:36:24.079Z,10.50
2018-09-16T20:38:52.157Z,32.23
2018-09-16T20:41:20.213Z,19.90
2018-09-16T20:43:48.442Z,11.47
2018-09-16T20:46:16.830Z,8.83
2018-09-16T20:48:44.872Z,9.20
2018-09-16T20:51:12.977Z,17.87
2018-09-16T20:53:41.026Z,29.50
2018-09-16T20:56:09.092Z,10.57
2018-09-16T20:58:37.158Z,8.40
2018-09-16T21:01:05.262Z,8.87
2018-09-16T21:03:33.345Z,8.93
2018-09-16T21:06:01.622Z,9.20
2018-09-16T21:08:29.674Z,8.97
2018-09-16T21:10:57.726Z,8.53
2018-09-16T21:13:25.772Z,8.10
2018-09-16T21:15:53.834Z,8.00
2018-09-16T21:18:21.889Z,8.07
2018-09-16T21:20:49.955Z,9.27
2018-09-16T21:23:18.010Z,7.90
2018-09-16T21:25:46.257Z,8.87
2018-09-16T21:28:14.286Z,8.10
2018-09-16T21:30:42.863Z,7.37
2018-09-16T21:33:10.918Z,8.57
2018-09-16T21:35:38.952Z,8.50
2018-09-16T21:38:07.028Z,9.33
2018-09-16T21:40:35.146Z,12.17
2018-09-16T21:43:03.414Z,20.27
2018-09-16T21:45:31.455Z,8.83
2018-09-16T21:47:59.503Z,9.23
2018-09-16T21:50:27.537Z,8.33
2018-09-16T21:52:55.600Z,8.50
2018-09-16T21:55:23.648Z,8.53
2018-09-16T21:57:51.758Z,8.67
2018-09-16T22:00:19.786Z,8.10
2018-09-16T22:02:47.866Z,8.37
2018-09-16T22:05:15.920Z,8.27
2018-09-16T22:07:44.066Z,7.60
2018-09-16T22:10:12.119Z,8.70
2018-09-16T22:12:40.218Z,9.13
2018-09-16T22:15:08.263Z,8.00
2018-09-16T22:17:36.335Z,8.53
2018-09-16T22:20:04.429Z,10.27
2018-09-16T22:22:32.501Z,9.87
2018-09-16T22:25:00.543Z,9.10
2018-09-16T22:27:28.628Z,10.07
2018-09-16T22:29:56.697Z,9.03
2018-09-16T22:32:24.750Z,9.27
2018-09-16T22:34:52.861Z,9.80
2018-09-16T22:37:20.866Z,37.13
2018-09-16T22:39:48.918Z,11.87
2018-09-16T22:42:16.979Z,11.27
2018-09-16T22:44:45.047Z,8.97
2018-09-16T22:47:13.270Z,9.50
2018-09-16T22:49:41.326Z,8.90
2018-09-16T22:52:09.414Z,9.63
2018-09-16T22:54:37.470Z,8.80
2018-09-16T22:57:06.238Z,8.70
2018-09-16T22:59:34.302Z,8.83
2018-09-16T23:02:02.578Z,9.57
2018-09-16T23:04:30.620Z,9.30
2018-09-16T23:06:58.685Z,9.10
2018-09-16T23:09:26.949Z,8.60
2018-09-16T23:11:55.002Z,8.70
2018-09-16T23:14:23.062Z,9.73
2018-09-16T23:16:51.105Z,8.27
2018-09-16T23:19:19.164Z,8.97
2018-09-16T23:21:47.286Z,8.10
2018-09-16T23:24:15.525Z,8.77
2018-09-16T23:26:43.581Z,7.23
2018-09-16T23:29:11.657Z,8.07
2018-09-16T23:31:39.913Z,7.50
2018-09-16T23:34:07.966Z,7.70
2018-09-16T23:36:36.022Z,8.23
2018-09-16T23:39:05.661Z,7.50
2018-09-16T23:41:33.717Z,7.37
2018-09-16T23:44:01.773Z,8.50
2018-09-16T23:46:30.003Z,6.77
2018-09-16T23:48:58.073Z,7.30
2018-09-16T23:51:26.190Z,7.20
2018-09-16T23:53:54.231Z,8.00
2018-09-16T23:56:22.271Z,6.63
2018-09-16T23:58:50.312Z,7.60
